Calajunco — IWSX — position and weather

sailwx.info

Track history (hours):
 
Tides and Currents Weather Stations Pressure Air Temp Water Temp Dewpoint Dewpoint Depression Visibility Wind Speed Wind Dir Waves Ship Positions

Calajunco

Last reported at 2017-Sep-10 10:15 UTC. Time now 2017-Sep-21 10:32 UTC.
Position N 40°29' E 017°14'.
Warning: this ship's position is 11 days out of date.

Length 20 m; draft 2 m.

Type: Ship. MMSI: 247350200.

Date/timePositionNaut miles runAvg speedWind from/ knotsBaromVisibWave heightAir tempDewpointWater temp
2017-Sep-10 10:15N 40°29' E 017°14'0 2.0
2017-Sep-10 10:00N 40°29' E 017°14'2 3.3
2017-Sep-10 09:30N 40°29' E 017°16'2 3.3
2017-Sep-10 09:00N 40°29' E 017°14'0 0.7
2017-Sep-10 08:30N 40°28' E 017°14'0 0.0
2017-Sep-09 17:19N 40°29' E 017°14'1 2.7
2017-Sep-09 17:01N 40°29' E 017°15'0 0.9
2017-Sep-09 16:30N 40°29' E 017°15'1 1.6
2017-Sep-09 16:00N 40°29' E 017°14'0 0.0
2017-Sep-09 15:31N 40°29' E 017°14'0 0.0
2017-Sep-09 15:00N 40°29' E 017°14'0 0.0
2017-Sep-08 17:31N 40°29' E 017°14'0 1.4
2017-Sep-08 17:30N 40°29' E 017°13'2 3.3
2017-Sep-08 17:00N 40°30' E 017°15'2 3.9
2017-Sep-08 16:30N 40°29' E 017°17'2 4.9
2017-Sep-08 16:00N 40°29' E 017°14'0 0.0
2017-Sep-08 15:30N 40°29' E 017°14'0 0.6
2017-Sep-08 15:00N 40°28' E 017°14'0 0.1
2017-Sep-08 10:37N 40°29' E 017°14'1 4.8
2017-Sep-08 10:30N 40°28' E 017°14'1 2.9
2017-Sep-08 10:00N 40°29' E 017°15'2 3.3
2017-Sep-08 09:30N 40°28' E 017°14'0 0.8
2017-Sep-08 09:00N 40°29' E 017°14'0 0.7
2017-Sep-08 08:30N 40°28' E 017°14'0 0.0
2017-Sep-07 17:29N 40°29' E 017°14'2 3.5
2017-Sep-07 17:01N 40°30' E 017°15'2 3.3
2017-Sep-07 16:30N 40°28' E 017°14'0 0.4
2017-Sep-07 16:00N 40°29' E 017°14'0 0.0
2017-Sep-07 15:31N 40°29' E 017°14'0 0.0
2017-Sep-07 15:01N 40°29' E 017°14'0 0.1
2017-Sep-07 10:21N 40°29' E 017°14'1 1.7
2017-Sep-07 10:00N 40°29' E 017°14'1 2.2
2017-Sep-07 09:31N 40°29' E 017°16'1 2.8
2017-Sep-07 09:01N 40°29' E 017°14'0 0.6
2017-Sep-07 08:30N 40°29' E 017°14'0 0.0
2017-Sep-07 08:01N 40°29' E 017°14'1 1.4
2017-Sep-07 07:31N 40°29' E 017°13'0 0.0
2017-Sep-06 17:18N 40°29' E 017°14'0 1.6
2017-Sep-06 17:00N 40°29' E 017°14'2 3.5
2017-Sep-06 16:30N 40°29' E 017°16'2 3.5
2017-Sep-06 16:00N 40°29' E 017°14'0 0.0
2017-Sep-06 15:30N 40°29' E 017°14'0 0.0
2017-Sep-06 15:00N 40°29' E 017°14'0 0.0
2017-Sep-05 17:58N 40°29' E 017°14'1 2.6
2017-Sep-05 17:30N 40°29' E 017°15'0 0.8
2017-Sep-05 17:00N 40°29' E 017°15'1 1.6
2017-Sep-05 16:30N 40°29' E 017°14'1 1.9
2017-Sep-05 16:00N 40°29' E 017°15'1 1.1
2017-Sep-05 15:30N 40°29' E 017°15'1 1.1
2017-Sep-05 15:00N 40°29' E 017°14'0 0.0
2017-Sep-04 17:33N 40°29' E 017°14'0 4.1
2017-Sep-04 17:30N 40°28' E 017°13'2 3.5
2017-Sep-04 17:00N 40°30' E 017°15'1 2.7
2017-Sep-04 16:30N 40°29' E 017°14'0 0.1
2017-Sep-04 16:00N 40°29' E 017°14'0 0.0
2017-Sep-04 15:30N 40°29' E 017°14'0 0.0
2017-Sep-04 15:00N 40°29' E 017°14'0 0.1
2017-Sep-04 09:33N 40°29' E 017°14'0 0.0
2017-Sep-04 09:30N 40°29' E 017°14'1 2.7
2017-Sep-04 09:00N 40°29' E 017°15'1 1.4
2017-Sep-04 08:30N 40°29' E 017°15'1 1.1
2017-Sep-04 08:00N 40°29' E 017°14'0 0.0
2017-Sep-03 18:11N 40°29' E 017°14'0 2.7
2017-Sep-03 18:00N 40°29' E 017°14'1 2.8
2017-Sep-03 17:31N 40°29' E 017°16'1 2.8
2017-Sep-03 17:00N 40°29' E 017°14'0 0.0
2017-Sep-03 16:30N 40°29' E 017°14'0 0.0
2017-Sep-03 16:00N 40°29' E 017°14'0 0.1
2017-Sep-03 11:03N 40°29' E 017°14'0 1.2
2017-Sep-03 11:00N 40°29' E 017°13'1 3.0
2017-Sep-03 10:30N 40°29' E 017°15'1 1.6
2017-Sep-03 10:00N 40°29' E 017°15'0 0.9
2017-Sep-03 09:30N 40°29' E 017°14'2 3.5
2017-Sep-03 09:00N 40°29' E 017°16'2 3.5
2017-Sep-03 08:30N 40°28' E 017°14'0 0.2
2017-Sep-03 08:00N 40°29' E 017°14'0 0.0
2017-Sep-01 17:34N 40°29' E 017°14'0 4.2
2017-Sep-01 17:30N 40°28' E 017°14'2 2.9
2017-Sep-01 16:57N 40°29' E 017°15'2 3.4
2017-Sep-01 16:26N 40°28' E 017°13'1 0.4
2017-Sep-01 14:58N 40°28' E 017°14'1 0.1
2017-Sep-01 10:21N 40°29' E 017°14'1 1.9
2017-Sep-01 09:52N 40°29' E 017°15'1 3.8
2017-Sep-01 09:30N 40°29' E 017°16'2 3.9
2017-Sep-01 09:01N 40°28' E 017°14'0 0.6
2017-Sep-01 08:30N 40°29' E 017°14'0 0.0
2017-Aug-31 17:56N 40°29' E 017°14'1 1.2
2017-Aug-31 17:29N 40°28' E 017°14'3 5.5
2017-Aug-31 17:00N 40°26' E 017°12'2 4.2
2017-Aug-31 16:30N 40°28' E 017°12'1 0.8
2017-Aug-31 14:58N 40°28' E 017°14'  
Track history (hours):
 
Tides and Currents Weather Stations Pressure Air Temp Water Temp Dewpoint Dewpoint Depression Visibility Wind Speed Wind Dir Waves Ship Positions

Calajunco

Last reported at 2017-Sep-10 10:15 UTC. Time now 2017-Sep-21 10:32 UTC.
Position N 40°29' E 017°14'.
Warning: this ship's position is 11 days out of date.

Length 20 m; draft 2 m.

Type: Ship. MMSI: 247350200.

Date/timePositionNaut miles runAvg speedWind from/ knotsBaromVisibWave heightAir tempDewpointWater temp
2017-Sep-10 10:15N 40°29' E 017°14'0 2.0
2017-Sep-10 10:00N 40°29' E 017°14'2 3.3
2017-Sep-10 09:30N 40°29' E 017°16'2 3.3
2017-Sep-10 09:00N 40°29' E 017°14'0 0.7
2017-Sep-10 08:30N 40°28' E 017°14'0 0.0
2017-Sep-09 17:19N 40°29' E 017°14'1 2.7
2017-Sep-09 17:01N 40°29' E 017°15'0 0.9
2017-Sep-09 16:30N 40°29' E 017°15'1 1.6
2017-Sep-09 16:00N 40°29' E 017°14'0 0.0
2017-Sep-09 15:31N 40°29' E 017°14'0 0.0
2017-Sep-09 15:00N 40°29' E 017°14'0 0.0
2017-Sep-08 17:31N 40°29' E 017°14'0 1.4
2017-Sep-08 17:30N 40°29' E 017°13'2 3.3
2017-Sep-08 17:00N 40°30' E 017°15'2 3.9
2017-Sep-08 16:30N 40°29' E 017°17'2 4.9
2017-Sep-08 16:00N 40°29' E 017°14'0 0.0
2017-Sep-08 15:30N 40°29' E 017°14'0 0.6
2017-Sep-08 15:00N 40°28' E 017°14'0 0.1
2017-Sep-08 10:37N 40°29' E 017°14'1 4.8
2017-Sep-08 10:30N 40°28' E 017°14'1 2.9
2017-Sep-08 10:00N 40°29' E 017°15'2 3.3
2017-Sep-08 09:30N 40°28' E 017°14'0 0.8
2017-Sep-08 09:00N 40°29' E 017°14'0 0.7
2017-Sep-08 08:30N 40°28' E 017°14'0 0.0
2017-Sep-07 17:29N 40°29' E 017°14'2 3.5
2017-Sep-07 17:01N 40°30' E 017°15'2 3.3
2017-Sep-07 16:30N 40°28' E 017°14'0 0.4
2017-Sep-07 16:00N 40°29' E 017°14'0 0.0
2017-Sep-07 15:31N 40°29' E 017°14'0 0.0
2017-Sep-07 15:01N 40°29' E 017°14'0 0.1
2017-Sep-07 10:21N 40°29' E 017°14'1 1.7
2017-Sep-07 10:00N 40°29' E 017°14'1 2.2
2017-Sep-07 09:31N 40°29' E 017°16'1 2.8
2017-Sep-07 09:01N 40°29' E 017°14'0 0.6
2017-Sep-07 08:30N 40°29' E 017°14'0 0.0
2017-Sep-07 08:01N 40°29' E 017°14'1 1.4
2017-Sep-07 07:31N 40°29' E 017°13'0 0.0
2017-Sep-06 17:18N 40°29' E 017°14'0 1.6
2017-Sep-06 17:00N 40°29' E 017°14'2 3.5
2017-Sep-06 16:30N 40°29' E 017°16'2 3.5
2017-Sep-06 16:00N 40°29' E 017°14'0 0.0
2017-Sep-06 15:30N 40°29' E 017°14'0 0.0
2017-Sep-06 15:00N 40°29' E 017°14'0 0.0
2017-Sep-05 17:58N 40°29' E 017°14'1 2.6
2017-Sep-05 17:30N 40°29' E 017°15'0 0.8
2017-Sep-05 17:00N 40°29' E 017°15'1 1.6
2017-Sep-05 16:30N 40°29' E 017°14'1 1.9
2017-Sep-05 16:00N 40°29' E 017°15'1 1.1
2017-Sep-05 15:30N 40°29' E 017°15'1 1.1
2017-Sep-05 15:00N 40°29' E 017°14'0 0.0
2017-Sep-04 17:33N 40°29' E 017°14'0 4.1
2017-Sep-04 17:30N 40°28' E 017°13'2 3.5
2017-Sep-04 17:00N 40°30' E 017°15'1 2.7
2017-Sep-04 16:30N 40°29' E 017°14'0 0.1
2017-Sep-04 16:00N 40°29' E 017°14'0 0.0
2017-Sep-04 15:30N 40°29' E 017°14'0 0.0
2017-Sep-04 15:00N 40°29' E 017°14'0 0.1
2017-Sep-04 09:33N 40°29' E 017°14'0 0.0
2017-Sep-04 09:30N 40°29' E 017°14'1 2.7
2017-Sep-04 09:00N 40°29' E 017°15'1 1.4
2017-Sep-04 08:30N 40°29' E 017°15'1 1.1
2017-Sep-04 08:00N 40°29' E 017°14'0 0.0
2017-Sep-03 18:11N 40°29' E 017°14'0 2.7
2017-Sep-03 18:00N 40°29' E 017°14'1 2.8
2017-Sep-03 17:31N 40°29' E 017°16'1 2.8
2017-Sep-03 17:00N 40°29' E 017°14'0 0.0
2017-Sep-03 16:30N 40°29' E 017°14'0 0.0
2017-Sep-03 16:00N 40°29' E 017°14'0 0.1
2017-Sep-03 11:03N 40°29' E 017°14'0 1.2
2017-Sep-03 11:00N 40°29' E 017°13'1 3.0
2017-Sep-03 10:30N 40°29' E 017°15'1 1.6
2017-Sep-03 10:00N 40°29' E 017°15'0 0.9
2017-Sep-03 09:30N 40°29' E 017°14'2 3.5
2017-Sep-03 09:00N 40°29' E 017°16'2 3.5
2017-Sep-03 08:30N 40°28' E 017°14'0 0.2
2017-Sep-03 08:00N 40°29' E 017°14'0 0.0
2017-Sep-01 17:34N 40°29' E 017°14'0 4.2
2017-Sep-01 17:30N 40°28' E 017°14'2 2.9
2017-Sep-01 16:57N 40°29' E 017°15'2 3.4
2017-Sep-01 16:26N 40°28' E 017°13'1 0.4
2017-Sep-01 14:58N 40°28' E 017°14'1 0.1
2017-Sep-01 10:21N 40°29' E 017°14'1 1.9
2017-Sep-01 09:52N 40°29' E 017°15'1 3.8
2017-Sep-01 09:30N 40°29' E 017°16'2 3.9
2017-Sep-01 09:01N 40°28' E 017°14'0 0.6
2017-Sep-01 08:30N 40°29' E 017°14'0 0.0
2017-Aug-31 17:56N 40°29' E 017°14'1 1.2
2017-Aug-31 17:29N 40°28' E 017°14'3 5.5
2017-Aug-31 17:00N 40°26' E 017°12'2 4.2
2017-Aug-31 16:30N 40°28' E 017°12'1 0.8
2017-Aug-31 14:58N 40°28' E 017°14'  

Dump ship's entire track history